sensor_id;sensor_type;location;lat;lon;timestamp;P1;durP1;ratioP1;P2;durP2;ratioP2
45114;SDS011;30877;43.706;10.780;2023-04-01T00:01:16;27.02;;;8.30;;
45114;SDS011;30877;43.706;10.780;2023-04-01T00:03:44;31.13;;;8.50;;
45114;SDS011;30877;43.706;10.780;2023-04-01T00:06:13;26.65;;;7.85;;
45114;SDS011;30877;43.706;10.780;2023-04-01T00:08:43;28.58;;;8.52;;
45114;SDS011;30877;43.706;10.780;2023-04-01T00:11:22;24.67;;;8.15;;
45114;SDS011;30877;43.706;10.780;2023-04-01T00:13:51;27.45;;;7.60;;
45114;SDS011;30877;43.706;10.780;2023-04-01T00:16:19;27.95;;;7.00;;
45114;SDS011;30877;43.706;10.780;2023-04-01T00:18:49;31.05;;;8.10;;
45114;SDS011;30877;43.706;10.780;2023-04-01T00:21:18;29.63;;;7.82;;
45114;SDS011;30877;43.706;10.780;2023-04-01T00:24:07;34.08;;;7.75;;
45114;SDS011;30877;43.706;10.780;2023-04-01T00:26:37;26.70;;;7.15;;
45114;SDS011;30877;43.706;10.780;2023-04-01T00:29:05;35.72;;;7.47;;
45114;SDS011;30877;43.706;10.780;2023-04-01T00:31:34;24.58;;;7.00;;
45114;SDS011;30877;43.706;10.780;2023-04-01T00:34:02;23.98;;;6.32;;
45114;SDS011;30877;43.706;10.780;2023-04-01T00:36:31;21.67;;;6.30;;
45114;SDS011;30877;43.706;10.780;2023-04-01T00:39:00;23.17;;;6.40;;
45114;SDS011;30877;43.706;10.780;2023-04-01T00:41:28;31.08;;;7.60;;
45114;SDS011;30877;43.706;10.780;2023-04-01T00:46:50;25.90;;;7.45;;
45114;SDS011;30877;43.706;10.780;2023-04-01T00:49:23;23.58;;;6.95;;
45114;SDS011;30877;43.706;10.780;2023-04-01T00:51:54;25.58;;;6.35;;
45114;SDS011;30877;43.706;10.780;2023-04-01T00:54:24;25.13;;;8.05;;
45114;SDS011;30877;43.706;10.780;2023-04-01T00:56:55;26.17;;;6.93;;
45114;SDS011;30877;43.706;10.780;2023-04-01T00:59:27;25.02;;;6.78;;
45114;SDS011;30877;43.706;10.780;2023-04-01T01:01:59;22.75;;;6.60;;
45114;SDS011;30877;43.706;10.780;2023-04-01T01:04:29;18.38;;;5.57;;
45114;SDS011;30877;43.706;10.780;2023-04-01T01:07:02;25.42;;;5.95;;
45114;SDS011;30877;43.706;10.780;2023-04-01T01:09:41;22.23;;;6.30;;
45114;SDS011;30877;43.706;10.780;2023-04-01T01:12:15;20.02;;;6.03;;
45114;SDS011;30877;43.706;10.780;2023-04-01T01:14:55;27.80;;;7.05;;
45114;SDS011;30877;43.706;10.780;2023-04-01T01:17:32;26.40;;;6.28;;
45114;SDS011;30877;43.706;10.780;2023-04-01T01:20:16;23.38;;;6.60;;
45114;SDS011;30877;43.706;10.780;2023-04-01T01:23:06;21.50;;;6.22;;
45114;SDS011;30877;43.706;10.780;2023-04-01T01:25:59;27.42;;;6.57;;
45114;SDS011;30877;43.706;10.780;2023-04-01T01:28:45;23.63;;;6.77;;
45114;SDS011;30877;43.706;10.780;2023-04-01T01:31:24;27.83;;;6.65;;
45114;SDS011;30877;43.706;10.780;2023-04-01T01:34:03;18.17;;;6.07;;
45114;SDS011;30877;43.706;10.780;2023-04-01T01:36:40;28.10;;;7.43;;
45114;SDS011;30877;43.706;10.780;2023-04-01T01:39:12;25.23;;;7.82;;
45114;SDS011;30877;43.706;10.780;2023-04-01T01:41:42;22.55;;;6.13;;
45114;SDS011;30877;43.706;10.780;2023-04-01T01:44:12;28.88;;;6.28;;
45114;SDS011;30877;43.706;10.780;2023-04-01T01:46:42;25.73;;;6.20;;
45114;SDS011;30877;43.706;10.780;2023-04-01T01:49:13;24.20;;;6.38;;
45114;SDS011;30877;43.706;10.780;2023-04-01T01:51:44;25.95;;;6.68;;
45114;SDS011;30877;43.706;10.780;2023-04-01T01:54:13;21.70;;;6.63;;
45114;SDS011;30877;43.706;10.780;2023-04-01T01:56:43;24.75;;;6.45;;
45114;SDS011;30877;43.706;10.780;2023-04-01T01:59:16;28.45;;;6.72;;
45114;SDS011;30877;43.706;10.780;2023-04-01T02:01:48;24.77;;;7.18;;
45114;SDS011;30877;43.706;10.780;2023-04-01T02:04:18;19.98;;;6.60;;
45114;SDS011;30877;43.706;10.780;2023-04-01T02:06:52;31.65;;;7.13;;
45114;SDS011;30877;43.706;10.780;2023-04-01T02:09:25;21.08;;;6.25;;
45114;SDS011;30877;43.706;10.780;2023-04-01T02:11:55;29.23;;;6.07;;
45114;SDS011;30877;43.706;10.780;2023-04-01T02:14:26;23.27;;;5.70;;
45114;SDS011;30877;43.706;10.780;2023-04-01T02:17:04;30.58;;;7.15;;
45114;SDS011;30877;43.706;10.780;2023-04-01T02:19:36;26.95;;;6.47;;
45114;SDS011;30877;43.706;10.780;2023-04-01T02:22:10;23.23;;;6.00;;
45114;SDS011;30877;43.706;10.780;2023-04-01T02:24:42;27.00;;;6.40;;
45114;SDS011;30877;43.706;10.780;2023-04-01T02:27:12;29.50;;;6.88;;
45114;SDS011;30877;43.706;10.780;2023-04-01T02:29:41;24.02;;;6.63;;
45114;SDS011;30877;43.706;10.780;2023-04-01T02:32:09;24.10;;;6.28;;
45114;SDS011;30877;43.706;10.780;2023-04-01T02:34:39;25.52;;;7.80;;
45114;SDS011;30877;43.706;10.780;2023-04-01T02:37:11;22.25;;;6.82;;
45114;SDS011;30877;43.706;10.780;2023-04-01T02:39:41;20.65;;;6.03;;
45114;SDS011;30877;43.706;10.780;2023-04-01T02:42:10;19.73;;;6.22;;
45114;SDS011;30877;43.706;10.780;2023-04-01T02:44:38;23.77;;;5.95;;
45114;SDS011;30877;43.706;10.780;2023-04-01T02:47:06;22.38;;;6.00;;
45114;SDS011;30877;43.706;10.780;2023-04-01T02:49:35;24.90;;;6.55;;
45114;SDS011;30877;43.706;10.780;2023-04-01T02:52:03;26.75;;;5.95;;
45114;SDS011;30877;43.706;10.780;2023-04-01T02:54:32;22.48;;;5.63;;
45114;SDS011;30877;43.706;10.780;2023-04-01T02:57:00;22.00;;;5.97;;
45114;SDS011;30877;43.706;10.780;2023-04-01T02:59:29;25.70;;;5.80;;
45114;SDS011;30877;43.706;10.780;2023-04-01T03:01:56;29.45;;;8.23;;
45114;SDS011;30877;43.706;10.780;2023-04-01T03:04:24;22.75;;;5.70;;
45114;SDS011;30877;43.706;10.780;2023-04-01T03:06:52;20.50;;;5.88;;
45114;SDS011;30877;43.706;10.780;2023-04-01T03:09:20;22.35;;;6.07;;
45114;SDS011;30877;43.706;10.780;2023-04-01T03:11:50;22.55;;;6.03;;
45114;SDS011;30877;43.706;10.780;2023-04-01T03:14:18;19.75;;;5.57;;
45114;SDS011;30877;43.706;10.780;2023-04-01T03:16:46;21.85;;;5.57;;
45114;SDS011;30877;43.706;10.780;2023-04-01T03:19:15;23.00;;;5.93;;
45114;SDS011;30877;43.706;10.780;2023-04-01T03:21:43;19.98;;;5.78;;
45114;SDS011;30877;43.706;10.780;2023-04-01T03:24:11;21.17;;;6.68;;
45114;SDS011;30877;43.706;10.780;2023-04-01T03:26:39;26.17;;;6.78;;
45114;SDS011;30877;43.706;10.780;2023-04-01T03:29:09;14.38;;;5.18;;
45114;SDS011;30877;43.706;10.780;2023-04-01T03:31:37;21.88;;;6.45;;
45114;SDS011;30877;43.706;10.780;2023-04-01T03:34:05;17.70;;;5.80;;
45114;SDS011;30877;43.706;10.780;2023-04-01T03:36:33;12.75;;;4.47;;
45114;SDS011;30877;43.706;10.780;2023-04-01T03:39:01;15.98;;;4.82;;
45114;SDS011;30877;43.706;10.780;2023-04-01T03:41:38;12.27;;;4.85;;
45114;SDS011;30877;43.706;10.780;2023-04-01T03:44:06;11.55;;;4.05;;
45114;SDS011;30877;43.706;10.780;2023-04-01T03:46:36;10.85;;;4.10;;
45114;SDS011;30877;43.706;10.780;2023-04-01T03:49:06;14.38;;;4.78;;
45114;SDS011;30877;43.706;10.780;2023-04-01T03:51:38;9.77;;;3.60;;
45114;SDS011;30877;43.706;10.780;2023-04-01T03:54:07;10.13;;;3.38;;
45114;SDS011;30877;43.706;10.780;2023-04-01T03:56:35;18.05;;;5.05;;
45114;SDS011;30877;43.706;10.780;2023-04-01T03:59:04;13.45;;;4.50;;
45114;SDS011;30877;43.706;10.780;2023-04-01T04:01:35;8.07;;;4.07;;
45114;SDS011;30877;43.706;10.780;2023-04-01T04:04:03;13.65;;;4.18;;
45114;SDS011;30877;43.706;10.780;2023-04-01T04:06:32;11.43;;;4.22;;
45114;SDS011;30877;43.706;10.780;2023-04-01T04:09:00;11.80;;;4.63;;
45114;SDS011;30877;43.706;10.780;2023-04-01T04:11:30;12.30;;;4.22;;
45114;SDS011;30877;43.706;10.780;2023-04-01T04:14:00;15.65;;;3.90;;
45114;SDS011;30877;43.706;10.780;2023-04-01T04:16:28;10.63;;;3.95;;
45114;SDS011;30877;43.706;10.780;2023-04-01T04:19:01;11.70;;;3.20;;
45114;SDS011;30877;43.706;10.780;2023-04-01T04:21:29;11.80;;;4.10;;
45114;SDS011;30877;43.706;10.780;2023-04-01T04:23:58;12.18;;;3.90;;
45114;SDS011;30877;43.706;10.780;2023-04-01T04:26:34;11.85;;;4.20;;
45114;SDS011;30877;43.706;10.780;2023-04-01T04:29:13;13.50;;;4.50;;
45114;SDS011;30877;43.706;10.780;2023-04-01T04:31:52;13.13;;;4.93;;
45114;SDS011;30877;43.706;10.780;2023-04-01T04:34:21;12.57;;;4.97;;
45114;SDS011;30877;43.706;10.780;2023-04-01T04:36:50;15.85;;;5.00;;
45114;SDS011;30877;43.706;10.780;2023-04-01T04:39:19;17.50;;;4.97;;
45114;SDS011;30877;43.706;10.780;2023-04-01T04:41:48;10.20;;;4.45;;
45114;SDS011;30877;43.706;10.780;2023-04-01T04:44:16;18.58;;;5.72;;
45114;SDS011;30877;43.706;10.780;2023-04-01T04:46:44;18.10;;;5.43;;
45114;SDS011;30877;43.706;10.780;2023-04-01T04:49:13;15.57;;;5.18;;
45114;SDS011;30877;43.706;10.780;2023-04-01T04:51:43;17.33;;;5.07;;
45114;SDS011;30877;43.706;10.780;2023-04-01T04:54:13;18.48;;;5.05;;
45114;SDS011;30877;43.706;10.780;2023-04-01T04:56:50;13.77;;;5.35;;
45114;SDS011;30877;43.706;10.780;2023-04-01T04:59:20;17.25;;;5.78;;
45114;SDS011;30877;43.706;10.780;2023-04-01T05:02:08;20.42;;;5.45;;
45114;SDS011;30877;43.706;10.780;2023-04-01T05:04:36;15.18;;;4.80;;
45114;SDS011;30877;43.706;10.780;2023-04-01T05:07:10;13.60;;;5.35;;
45114;SDS011;30877;43.706;10.780;2023-04-01T05:09:38;18.40;;;6.40;;
45114;SDS011;30877;43.706;10.780;2023-04-01T05:12:06;20.50;;;6.20;;
45114;SDS011;30877;43.706;10.780;2023-04-01T05:14:57;18.00;;;5.93;;
45114;SDS011;30877;43.706;10.780;2023-04-01T05:17:25;17.27;;;6.70;;
45114;SDS011;30877;43.706;10.780;2023-04-01T05:19:53;18.63;;;6.10;;
45114;SDS011;30877;43.706;10.780;2023-04-01T05:22:23;14.18;;;5.35;;
45114;SDS011;30877;43.706;10.780;2023-04-01T05:24:50;16.27;;;6.03;;
45114;SDS011;30877;43.706;10.780;2023-04-01T05:27:19;16.92;;;5.80;;
45114;SDS011;30877;43.706;10.780;2023-04-01T05:29:47;14.05;;;5.60;;
45114;SDS011;30877;43.706;10.780;2023-04-01T05:32:35;10.90;;;5.78;;
45114;SDS011;30877;43.706;10.780;2023-04-01T05:35:03;10.88;;;4.85;;
45114;SDS011;30877;43.706;10.780;2023-04-01T05:37:34;15.00;;;5.60;;
45114;SDS011;30877;43.706;10.780;2023-04-01T05:40:04;16.38;;;6.20;;
45114;SDS011;30877;43.706;10.780;2023-04-01T05:42:33;15.25;;;6.25;;
45114;SDS011;30877;43.706;10.780;2023-04-01T05:45:04;19.48;;;7.55;;
45114;SDS011;30877;43.706;10.780;2023-04-01T05:47:51;17.95;;;6.95;;
45114;SDS011;30877;43.706;10.780;2023-04-01T05:50:19;14.77;;;6.63;;
45114;SDS011;30877;43.706;10.780;2023-04-01T05:52:49;18.75;;;6.72;;
45114;SDS011;30877;43.706;10.780;2023-04-01T05:55:17;18.30;;;7.05;;
45114;SDS011;30877;43.706;10.780;2023-04-01T05:57:45;13.50;;;5.97;;
45114;SDS011;30877;43.706;10.780;2023-04-01T06:00:16;15.98;;;6.40;;
45114;SDS011;30877;43.706;10.780;2023-04-01T06:02:47;18.10;;;6.35;;
45114;SDS011;30877;43.706;10.780;2023-04-01T06:05:17;11.52;;;5.70;;
45114;SDS011;30877;43.706;10.780;2023-04-01T06:07:47;10.60;;;5.22;;
45114;SDS011;30877;43.706;10.780;2023-04-01T06:10:18;17.23;;;6.72;;
45114;SDS011;30877;43.706;10.780;2023-04-01T06:12:50;15.07;;;6.57;;
45114;SDS011;30877;43.706;10.780;2023-04-01T06:15:27;13.65;;;6.07;;
45114;SDS011;30877;43.706;10.780;2023-04-01T06:18:10;11.77;;;5.47;;
45114;SDS011;30877;43.706;10.780;2023-04-01T06:21:05;16.80;;;5.28;;
45114;SDS011;30877;43.706;10.780;2023-04-01T06:24:00;12.40;;;4.97;;
45114;SDS011;30877;43.706;10.780;2023-04-01T06:26:41;16.25;;;5.40;;
45114;SDS011;30877;43.706;10.780;2023-04-01T06:32:40;11.05;;;4.80;;
45114;SDS011;30877;43.706;10.780;2023-04-01T06:35:54;11.27;;;4.10;;
45114;SDS011;30877;43.706;10.780;2023-04-01T06:38:42;8.65;;;3.90;;
45114;SDS011;30877;43.706;10.780;2023-04-01T06:41:44;10.45;;;4.28;;
45114;SDS011;30877;43.706;10.780;2023-04-01T06:44:33;10.77;;;4.72;;
45114;SDS011;30877;43.706;10.780;2023-04-01T06:47:31;9.77;;;4.20;;
45114;SDS011;30877;43.706;10.780;2023-04-01T06:50:48;9.27;;;4.70;;
45114;SDS011;30877;43.706;10.780;2023-04-01T06:53:43;9.40;;;4.13;;
45114;SDS011;30877;43.706;10.780;2023-04-01T06:56:45;10.20;;;4.53;;
45114;SDS011;30877;43.706;10.780;2023-04-01T06:59:22;12.48;;;4.20;;
45114;SDS011;30877;43.706;10.780;2023-04-01T07:01:55;13.05;;;4.18;;
45114;SDS011;30877;43.706;10.780;2023-04-01T07:04:28;11.05;;;3.60;;
45114;SDS011;30877;43.706;10.780;2023-04-01T07:06:59;9.15;;;3.53;;
45114;SDS011;30877;43.706;10.780;2023-04-01T07:09:33;11.80;;;3.35;;
45114;SDS011;30877;43.706;10.780;2023-04-01T07:12:42;14.25;;;6.90;;
45114;SDS011;30877;43.706;10.780;2023-04-01T07:15:33;11.40;;;5.05;;
45114;SDS011;30877;43.706;10.780;2023-04-01T07:18:10;12.82;;;4.05;;
45114;SDS011;30877;43.706;10.780;2023-04-01T07:20:43;9.10;;;4.13;;
45114;SDS011;30877;43.706;10.780;2023-04-01T07:23:15;10.02;;;4.45;;
45114;SDS011;30877;43.706;10.780;2023-04-01T07:26:00;7.10;;;3.42;;
45114;SDS011;30877;43.706;10.780;2023-04-01T07:28:58;10.18;;;4.38;;
45114;SDS011;30877;43.706;10.780;2023-04-01T07:31:43;83.13;;;39.92;;
45114;SDS011;30877;43.706;10.780;2023-04-01T07:34:23;28.23;;;15.45;;
45114;SDS011;30877;43.706;10.780;2023-04-01T07:36:54;25.48;;;11.55;;
45114;SDS011;30877;43.706;10.780;2023-04-01T07:39:32;14.68;;;7.82;;
45114;SDS011;30877;43.706;10.780;2023-04-01T07:42:36;17.75;;;7.25;;
45114;SDS011;30877;43.706;10.780;2023-04-01T07:45:22;14.60;;;5.30;;
45114;SDS011;30877;43.706;10.780;2023-04-01T07:48:00;8.85;;;3.85;;
45114;SDS011;30877;43.706;10.780;2023-04-01T07:50:38;9.75;;;3.42;;
45114;SDS011;30877;43.706;10.780;2023-04-01T07:53:16;8.48;;;2.72;;
45114;SDS011;30877;43.706;10.780;2023-04-01T07:55:54;9.93;;;3.30;;
45114;SDS011;30877;43.706;10.780;2023-04-01T07:58:33;7.30;;;2.58;;
45114;SDS011;30877;43.706;10.780;2023-04-01T08:06:43;12.18;;;2.60;;
45114;SDS011;30877;43.706;10.780;2023-04-01T08:09:20;16.92;;;3.92;;
45114;SDS011;30877;43.706;10.780;2023-04-01T08:12:18;16.17;;;3.42;;
45114;SDS011;30877;43.706;10.780;2023-04-01T08:15:04;13.63;;;2.75;;
45114;SDS011;30877;43.706;10.780;2023-04-01T08:17:48;9.35;;;2.90;;
45114;SDS011;30877;43.706;10.780;2023-04-01T08:20:28;9.63;;;2.17;;
45114;SDS011;30877;43.706;10.780;2023-04-01T08:25:48;11.68;;;3.28;;
45114;SDS011;30877;43.706;10.780;2023-04-01T08:28:24;9.70;;;2.72;;
45114;SDS011;30877;43.706;10.780;2023-04-01T08:30:59;10.07;;;2.47;;
45114;SDS011;30877;43.706;10.780;2023-04-01T08:33:33;9.70;;;3.03;;
45114;SDS011;30877;43.706;10.780;2023-04-01T08:36:12;15.27;;;2.63;;
45114;SDS011;30877;43.706;10.780;2023-04-01T08:38:49;11.80;;;2.83;;
45114;SDS011;30877;43.706;10.780;2023-04-01T08:41:25;10.38;;;2.75;;
45114;SDS011;30877;43.706;10.780;2023-04-01T08:48:00;10.13;;;2.45;;
45114;SDS011;30877;43.706;10.780;2023-04-01T08:53:50;15.20;;;3.08;;
45114;SDS011;30877;43.706;10.780;2023-04-01T08:56:33;8.32;;;2.08;;
45114;SDS011;30877;43.706;10.780;2023-04-01T08:59:25;10.68;;;2.53;;
45114;SDS011;30877;43.706;10.780;2023-04-01T09:02:45;11.13;;;2.22;;
45114;SDS011;30877;43.706;10.780;2023-04-01T09:05:34;17.05;;;2.78;;
45114;SDS011;30877;43.706;10.780;2023-04-01T09:08:23;13.55;;;3.42;;
45114;SDS011;30877;43.706;10.780;2023-04-01T09:11:04;14.77;;;3.08;;
45114;SDS011;30877;43.706;10.780;2023-04-01T09:17:08;15.27;;;3.20;;
45114;SDS011;30877;43.706;10.780;2023-04-01T09:20:00;14.18;;;2.58;;
45114;SDS011;30877;43.706;10.780;2023-04-01T09:23:08;15.00;;;2.67;;
45114;SDS011;30877;43.706;10.780;2023-04-01T09:28:27;11.73;;;2.85;;
45114;SDS011;30877;43.706;10.780;2023-04-01T09:31:04;9.83;;;1.87;;
45114;SDS011;30877;43.706;10.780;2023-04-01T09:37:23;17.02;;;2.88;;
45114;SDS011;30877;43.706;10.780;2023-04-01T09:40:17;15.80;;;3.33;;
45114;SDS011;30877;43.706;10.780;2023-04-01T09:43:12;13.23;;;2.83;;
45114;SDS011;30877;43.706;10.780;2023-04-01T09:45:59;12.98;;;3.15;;
45114;SDS011;30877;43.706;10.780;2023-04-01T09:48:45;14.63;;;2.70;;
45114;SDS011;30877;43.706;10.780;2023-04-01T09:51:35;15.20;;;3.30;;
45114;SDS011;30877;43.706;10.780;2023-04-01T09:54:13;10.50;;;2.38;;
45114;SDS011;30877;43.706;10.780;2023-04-01T10:00:23;14.77;;;2.90;;
45114;SDS011;30877;43.706;10.780;2023-04-01T10:13:17;10.35;;;2.70;;
45114;SDS011;30877;43.706;10.780;2023-04-01T10:16:13;9.10;;;2.60;;
45114;SDS011;30877;43.706;10.780;2023-04-01T10:18:56;16.80;;;3.50;;
45114;SDS011;30877;43.706;10.780;2023-04-01T10:21:55;14.07;;;3.33;;
45114;SDS011;30877;43.706;10.780;2023-04-01T10:25:10;16.77;;;3.50;;
45114;SDS011;30877;43.706;10.780;2023-04-01T10:28:21;9.85;;;2.55;;
45114;SDS011;30877;43.706;10.780;2023-04-01T10:34:26;17.55;;;3.97;;
45114;SDS011;30877;43.706;10.780;2023-04-01T10:37:23;13.18;;;3.10;;
45114;SDS011;30877;43.706;10.780;2023-04-01T10:47:18;16.42;;;3.45;;
45114;SDS011;30877;43.706;10.780;2023-04-01T10:50:19;15.52;;;2.85;;
45114;SDS011;30877;43.706;10.780;2023-04-01T10:56:51;11.48;;;2.65;;
45114;SDS011;30877;43.706;10.780;2023-04-01T11:00:11;13.30;;;3.13;;
45114;SDS011;30877;43.706;10.780;2023-04-01T11:13:03;10.00;;;2.53;;
45114;SDS011;30877;43.706;10.780;2023-04-01T11:22:09;18.10;;;3.85;;
45114;SDS011;30877;43.706;10.780;2023-04-01T11:25:23;11.95;;;3.58;;
45114;SDS011;30877;43.706;10.780;2023-04-01T11:28:35;10.13;;;2.75;;
45114;SDS011;30877;43.706;10.780;2023-04-01T11:31:29;10.68;;;3.00;;
45114;SDS011;30877;43.706;10.780;2023-04-01T11:34:09;14.85;;;3.47;;
45114;SDS011;30877;43.706;10.780;2023-04-01T11:36:51;13.32;;;2.58;;
45114;SDS011;30877;43.706;10.780;2023-04-01T11:39:33;10.30;;;2.33;;
45114;SDS011;30877;43.706;10.780;2023-04-01T11:42:34;13.75;;;2.95;;
45114;SDS011;30877;43.706;10.780;2023-04-01T11:45:46;13.45;;;2.85;;
45114;SDS011;30877;43.706;10.780;2023-04-01T11:54:22;7.65;;;2.00;;
45114;SDS011;30877;43.706;10.780;2023-04-01T11:57:11;11.20;;;2.92;;
45114;SDS011;30877;43.706;10.780;2023-04-01T12:00:02;12.13;;;2.88;;
45114;SDS011;30877;43.706;10.780;2023-04-01T12:02:42;8.70;;;2.35;;
45114;SDS011;30877;43.706;10.780;2023-04-01T12:05:33;7.53;;;2.20;;
45114;SDS011;30877;43.706;10.780;2023-04-01T12:08:21;8.25;;;1.85;;
45114;SDS011;30877;43.706;10.780;2023-04-01T12:11:03;8.80;;;2.10;;
45114;SDS011;30877;43.706;10.780;2023-04-01T12:13:45;7.82;;;1.80;;
45114;SDS011;30877;43.706;10.780;2023-04-01T12:16:36;11.10;;;2.72;;
45114;SDS011;30877;43.706;10.780;2023-04-01T12:19:24;10.40;;;2.38;;
45114;SDS011;30877;43.706;10.780;2023-04-01T12:22:12;9.15;;;2.47;;
45114;SDS011;30877;43.706;10.780;2023-04-01T12:25:02;9.27;;;1.83;;
45114;SDS011;30877;43.706;10.780;2023-04-01T12:27:47;10.43;;;1.97;;
45114;SDS011;30877;43.706;10.780;2023-04-01T12:33:29;10.63;;;2.75;;
45114;SDS011;30877;43.706;10.780;2023-04-01T12:36:19;12.60;;;3.38;;
45114;SDS011;30877;43.706;10.780;2023-04-01T12:39:06;7.60;;;2.95;;
45114;SDS011;30877;43.706;10.780;2023-04-01T12:41:50;13.73;;;3.47;;
45114;SDS011;30877;43.706;10.780;2023-04-01T12:44:31;8.60;;;2.83;;
45114;SDS011;30877;43.706;10.780;2023-04-01T12:47:23;10.40;;;2.65;;
45114;SDS011;30877;43.706;10.780;2023-04-01T12:50:25;8.15;;;2.00;;
45114;SDS011;30877;43.706;10.780;2023-04-01T12:55:35;10.23;;;2.20;;
45114;SDS011;30877;43.706;10.780;2023-04-01T13:01:23;9.20;;;2.17;;
45114;SDS011;30877;43.706;10.780;2023-04-01T13:04:08;8.18;;;2.28;;
45114;SDS011;30877;43.706;10.780;2023-04-01T13:06:59;9.00;;;2.13;;
45114;SDS011;30877;43.706;10.780;2023-04-01T13:09:43;8.82;;;2.42;;
45114;SDS011;30877;43.706;10.780;2023-04-01T13:15:49;9.98;;;1.80;;
45114;SDS011;30877;43.706;10.780;2023-04-01T13:18:25;7.22;;;1.70;;
45114;SDS011;30877;43.706;10.780;2023-04-01T13:21:05;10.75;;;2.40;;
45114;SDS011;30877;43.706;10.780;2023-04-01T13:23:51;12.13;;;2.17;;
45114;SDS011;30877;43.706;10.780;2023-04-01T13:26:27;7.28;;;2.05;;
45114;SDS011;30877;43.706;10.780;2023-04-01T13:29:04;10.95;;;2.20;;
45114;SDS011;30877;43.706;10.780;2023-04-01T13:31:50;11.50;;;2.40;;
45114;SDS011;30877;43.706;10.780;2023-04-01T13:34:34;11.77;;;2.50;;
45114;SDS011;30877;43.706;10.780;2023-04-01T13:37:16;7.88;;;2.35;;
45114;SDS011;30877;43.706;10.780;2023-04-01T13:39:57;9.13;;;2.35;;
45114;SDS011;30877;43.706;10.780;2023-04-01T13:42:43;10.40;;;2.80;;
45114;SDS011;30877;43.706;10.780;2023-04-01T13:45:18;10.77;;;2.17;;
45114;SDS011;30877;43.706;10.780;2023-04-01T13:50:54;11.25;;;2.88;;
45114;SDS011;30877;43.706;10.780;2023-04-01T13:53:41;13.27;;;2.47;;
45114;SDS011;30877;43.706;10.780;2023-04-01T13:56:34;9.80;;;2.28;;
45114;SDS011;30877;43.706;10.780;2023-04-01T14:02:10;6.20;;;1.48;;
45114;SDS011;30877;43.706;10.780;2023-04-01T14:05:02;11.18;;;2.10;;
45114;SDS011;30877;43.706;10.780;2023-04-01T14:08:09;15.13;;;2.83;;
45114;SDS011;30877;43.706;10.780;2023-04-01T14:10:49;11.50;;;2.45;;
45114;SDS011;30877;43.706;10.780;2023-04-01T14:13:28;10.35;;;2.50;;
45114;SDS011;30877;43.706;10.780;2023-04-01T14:16:08;12.10;;;3.00;;
45114;SDS011;30877;43.706;10.780;2023-04-01T14:18:54;14.60;;;3.42;;
45114;SDS011;30877;43.706;10.780;2023-04-01T14:21:38;13.43;;;2.72;;
45114;SDS011;30877;43.706;10.780;2023-04-01T14:24:20;11.02;;;2.72;;
45114;SDS011;30877;43.706;10.780;2023-04-01T14:30:16;9.82;;;2.50;;
45114;SDS011;30877;43.706;10.780;2023-04-01T14:33:01;16.40;;;3.13;;
45114;SDS011;30877;43.706;10.780;2023-04-01T14:35:46;13.88;;;2.08;;
45114;SDS011;30877;43.706;10.780;2023-04-01T14:41:15;9.27;;;2.03;;
45114;SDS011;30877;43.706;10.780;2023-04-01T14:43:51;8.82;;;2.22;;
45114;SDS011;30877;43.706;10.780;2023-04-01T14:46:52;13.88;;;3.05;;
45114;SDS011;30877;43.706;10.780;2023-04-01T14:49:42;9.60;;;2.38;;
45114;SDS011;30877;43.706;10.780;2023-04-01T14:52:14;10.65;;;2.40;;
45114;SDS011;30877;43.706;10.780;2023-04-01T14:54:49;7.78;;;1.80;;
45114;SDS011;30877;43.706;10.780;2023-04-01T14:57:22;12.05;;;2.63;;
45114;SDS011;30877;43.706;10.780;2023-04-01T14:59:53;8.48;;;2.50;;
45114;SDS011;30877;43.706;10.780;2023-04-01T15:05:24;6.55;;;1.60;;
45114;SDS011;30877;43.706;10.780;2023-04-01T15:08:11;10.82;;;2.10;;
45114;SDS011;30877;43.706;10.780;2023-04-01T15:10:52;10.20;;;2.42;;
45114;SDS011;30877;43.706;10.780;2023-04-01T15:16:24;10.82;;;2.20;;
45114;SDS011;30877;43.706;10.780;2023-04-01T15:19:01;7.88;;;2.17;;
45114;SDS011;30877;43.706;10.780;2023-04-01T15:21:44;14.15;;;2.78;;
45114;SDS011;30877;43.706;10.780;2023-04-01T15:24:26;7.43;;;2.40;;
45114;SDS011;30877;43.706;10.780;2023-04-01T15:27:19;7.60;;;2.38;;
45114;SDS011;30877;43.706;10.780;2023-04-01T15:30:02;12.95;;;2.95;;
45114;SDS011;30877;43.706;10.780;2023-04-01T15:33:16;16.40;;;8.40;;
45114;SDS011;30877;43.706;10.780;2023-04-01T15:36:06;12.05;;;3.00;;
45114;SDS011;30877;43.706;10.780;2023-04-01T15:38:47;9.82;;;2.67;;
45114;SDS011;30877;43.706;10.780;2023-04-01T15:41:17;12.95;;;2.78;;
45114;SDS011;30877;43.706;10.780;2023-04-01T15:43:51;13.57;;;7.90;;
45114;SDS011;30877;43.706;10.780;2023-04-01T15:46:24;14.25;;;8.07;;
45114;SDS011;30877;43.706;10.780;2023-04-01T15:49:11;14.07;;;5.97;;
45114;SDS011;30877;43.706;10.780;2023-04-01T15:51:58;12.30;;;3.28;;
45114;SDS011;30877;43.706;10.780;2023-04-01T15:54:47;12.38;;;3.10;;
45114;SDS011;30877;43.706;10.780;2023-04-01T15:57:27;10.23;;;2.80;;
45114;SDS011;30877;43.706;10.780;2023-04-01T16:00:10;14.55;;;2.55;;
45114;SDS011;30877;43.706;10.780;2023-04-01T16:02:49;11.48;;;2.65;;
45114;SDS011;30877;43.706;10.780;2023-04-01T16:05:33;12.60;;;2.65;;
45114;SDS011;30877;43.706;10.780;2023-04-01T16:08:21;10.77;;;2.50;;
45114;SDS011;30877;43.706;10.780;2023-04-01T16:11:07;13.18;;;2.90;;
45114;SDS011;30877;43.706;10.780;2023-04-01T16:13:53;10.43;;;2.92;;
45114;SDS011;30877;43.706;10.780;2023-04-01T16:16:38;11.77;;;2.40;;
45114;SDS011;30877;43.706;10.780;2023-04-01T16:19:24;19.42;;;3.13;;
45114;SDS011;30877;43.706;10.780;2023-04-01T16:22:02;11.68;;;3.38;;
45114;SDS011;30877;43.706;10.780;2023-04-01T16:24:35;11.95;;;2.63;;
45114;SDS011;30877;43.706;10.780;2023-04-01T16:27:13;9.32;;;2.38;;
45114;SDS011;30877;43.706;10.780;2023-04-01T16:29:46;13.60;;;3.13;;
45114;SDS011;30877;43.706;10.780;2023-04-01T16:32:28;12.07;;;2.90;;
45114;SDS011;30877;43.706;10.780;2023-04-01T16:35:12;11.30;;;3.05;;
45114;SDS011;30877;43.706;10.780;2023-04-01T16:37:58;17.27;;;4.38;;
45114;SDS011;30877;43.706;10.780;2023-04-01T16:43:06;13.82;;;3.20;;
45114;SDS011;30877;43.706;10.780;2023-04-01T16:45:41;11.75;;;2.75;;
45114;SDS011;30877;43.706;10.780;2023-04-01T16:48:15;13.98;;;3.38;;
45114;SDS011;30877;43.706;10.780;2023-04-01T16:50:51;13.50;;;3.55;;
45114;SDS011;30877;43.706;10.780;2023-04-01T16:53:25;10.75;;;2.75;;
45114;SDS011;30877;43.706;10.780;2023-04-01T16:56:06;18.45;;;3.83;;
45114;SDS011;30877;43.706;10.780;2023-04-01T16:58:40;15.18;;;2.67;;
45114;SDS011;30877;43.706;10.780;2023-04-01T17:01:12;11.48;;;2.97;;
45114;SDS011;30877;43.706;10.780;2023-04-01T17:03:44;19.60;;;3.10;;
45114;SDS011;30877;43.706;10.780;2023-04-01T17:06:27;15.38;;;3.13;;
45114;SDS011;30877;43.706;10.780;2023-04-01T17:09:02;16.50;;;3.47;;
45114;SDS011;30877;43.706;10.780;2023-04-01T17:11:45;29.77;;;14.15;;
45114;SDS011;30877;43.706;10.780;2023-04-01T17:14:24;21.50;;;9.15;;
45114;SDS011;30877;43.706;10.780;2023-04-01T17:17:01;23.73;;;10.10;;
45114;SDS011;30877;43.706;10.780;2023-04-01T17:19:47;15.73;;;5.72;;
45114;SDS011;30877;43.706;10.780;2023-04-01T17:22:32;19.00;;;5.00;;
45114;SDS011;30877;43.706;10.780;2023-04-01T17:28:09;16.75;;;4.47;;
45114;SDS011;30877;43.706;10.780;2023-04-01T17:30:46;19.45;;;4.07;;